createdAt,value
2023-04-25T00:01:21.123Z,2.97
2023-04-25T00:03:48.171Z,3.20
2023-04-25T00:06:15.299Z,3.15
2023-04-25T00:08:42.209Z,3.70
2023-04-25T00:11:08.893Z,2.92
2023-04-25T00:13:35.527Z,3.27
2023-04-25T00:16:03.900Z,3.28
2023-04-25T00:18:30.817Z,3.10
2023-04-25T00:20:57.470Z,3.42
2023-04-25T00:23:24.856Z,3.50
2023-04-25T00:25:51.855Z,3.53
2023-04-25T00:28:18.620Z,3.20
2023-04-25T00:30:45.318Z,3.45
2023-04-25T00:33:12.000Z,3.10
2023-04-25T00:35:39.533Z,3.08
2023-04-25T00:38:06.214Z,3.13
2023-04-25T00:40:32.937Z,3.00
2023-04-25T00:42:59.528Z,4.10
2023-04-25T00:45:30.584Z,3.33
2023-04-25T00:47:58.470Z,3.50
2023-04-25T00:50:25.850Z,3.53
2023-04-25T00:52:52.863Z,2.67
2023-04-25T00:55:20.477Z,3.25
2023-04-25T00:57:48.273Z,3.65
2023-04-25T01:00:15.697Z,3.65
2023-04-25T01:02:45.834Z,3.20
2023-04-25T01:05:13.095Z,3.38
2023-04-25T01:07:40.429Z,3.20
2023-04-25T01:10:07.778Z,3.03
2023-04-25T01:12:34.910Z,3.50
2023-04-25T01:15:01.704Z,2.83
2023-04-25T01:17:30.142Z,3.42
2023-04-25T01:19:56.914Z,3.35
2023-04-25T01:22:23.725Z,2.83
2023-04-25T01:24:50.662Z,3.25
2023-04-25T01:27:17.874Z,3.33
2023-04-25T01:29:44.804Z,3.33
2023-04-25T01:32:11.700Z,3.38
2023-04-25T01:34:38.543Z,3.30
2023-04-25T01:37:05.226Z,3.58
2023-04-25T01:39:32.043Z,2.60
2023-04-25T01:42:00.760Z,3.33
2023-04-25T01:44:27.509Z,3.35
2023-04-25T01:46:54.776Z,2.63
2023-04-25T01:49:21.671Z,3.17
2023-04-25T01:51:48.286Z,2.63
2023-04-25T01:54:15.201Z,2.88
2023-04-25T01:56:41.793Z,3.20
2023-04-25T01:59:08.421Z,2.70
2023-04-25T02:01:35.117Z,2.60
2023-04-25T02:04:02.168Z,3.30
2023-04-25T02:06:29.092Z,3.90
2023-04-25T02:08:55.692Z,3.00
2023-04-25T02:11:22.348Z,3.78
2023-04-25T02:13:49.113Z,3.17
2023-04-25T02:16:15.890Z,2.53
2023-04-25T02:18:42.575Z,2.92
2023-04-25T02:21:09.251Z,3.70
2023-04-25T02:23:36.307Z,2.95
2023-04-25T02:26:03.394Z,3.28
2023-04-25T02:28:30.019Z,3.53
2023-04-25T02:30:56.690Z,3.63
2023-04-25T02:33:23.320Z,2.90
2023-04-25T02:35:50.016Z,2.67
2023-04-25T02:38:16.663Z,3.15
2023-04-25T02:40:43.414Z,3.57
2023-04-25T02:43:10.031Z,2.83
2023-04-25T02:45:36.764Z,3.10
2023-04-25T02:48:04.696Z,3.03
2023-04-25T02:50:31.332Z,3.25
2023-04-25T02:52:58.096Z,3.10
2023-04-25T02:55:27.075Z,2.90
2023-04-25T02:57:56.294Z,3.55
2023-04-25T03:00:23.599Z,3.10
2023-04-25T03:02:50.430Z,2.95
2023-04-25T03:05:17.637Z,3.63
2023-04-25T03:07:45.081Z,3.55
2023-04-25T03:10:11.717Z,3.28
2023-04-25T03:12:38.636Z,3.17
2023-04-25T03:15:05.883Z,3.38
2023-04-25T03:17:32.538Z,2.87
2023-04-25T03:19:59.186Z,3.28
2023-04-25T03:22:25.772Z,3.38
2023-04-25T03:24:52.375Z,3.53
2023-04-25T03:27:19.032Z,3.08
2023-04-25T03:29:45.764Z,2.87
2023-04-25T03:32:12.600Z,3.17
2023-04-25T03:34:39.338Z,3.60
2023-04-25T03:37:05.981Z,3.78
2023-04-25T03:39:32.802Z,3.00
2023-04-25T03:41:59.451Z,2.40
2023-04-25T03:44:26.047Z,3.30
2023-04-25T03:46:52.620Z,3.20
2023-04-25T03:49:19.505Z,3.42
2023-04-25T03:51:46.469Z,2.92
2023-04-25T03:54:13.128Z,3.07
2023-04-25T03:56:39.759Z,2.83
2023-04-25T03:59:06.405Z,2.97
2023-04-25T04:01:33.035Z,1.98
2023-04-25T04:03:59.849Z,3.00
2023-04-25T04:06:26.657Z,3.10
2023-04-25T04:08:53.353Z,2.88
2023-04-25T04:11:21.480Z,3.83
2023-04-25T04:13:48.394Z,2.53
2023-04-25T04:16:15.292Z,2.40
2023-04-25T04:18:41.973Z,2.73
2023-04-25T04:21:08.607Z,2.40
2023-04-25T04:23:37.019Z,2.40
2023-04-25T04:26:04.907Z,2.10
2023-04-25T04:28:31.697Z,2.00
2023-04-25T04:30:58.636Z,1.73
2023-04-25T04:33:25.553Z,2.15
2023-04-25T04:35:54.346Z,2.25
2023-04-25T04:38:22.288Z,2.22
2023-04-25T04:40:49.073Z,2.25
2023-04-25T04:43:18.152Z,2.17
2023-04-25T04:45:45.584Z,2.00
2023-04-25T04:48:14.993Z,2.05
2023-04-25T04:50:43.652Z,1.92
2023-04-25T04:53:10.341Z,2.00
2023-04-25T04:55:36.969Z,2.23
2023-04-25T04:58:03.587Z,2.00
2023-04-25T05:00:31.037Z,2.20
2023-04-25T05:02:57.948Z,2.42
2023-04-25T05:05:25.209Z,2.20
2023-04-25T05:07:52.405Z,1.90
2023-04-25T05:10:20.382Z,2.00
2023-04-25T05:12:47.490Z,2.30
2023-04-25T05:15:15.045Z,1.77
2023-04-25T05:17:41.813Z,1.85
2023-04-25T05:20:10.439Z,1.93
2023-04-25T05:22:37.143Z,2.13
2023-04-25T05:25:04.596Z,1.67
2023-04-25T05:27:31.228Z,2.42
2023-04-25T05:29:57.831Z,1.75
2023-04-25T05:32:26.327Z,2.40
2023-04-25T05:34:53.452Z,1.60
2023-04-25T05:37:20.184Z,2.00
2023-04-25T05:39:46.825Z,1.83
2023-04-25T05:42:13.469Z,2.28
2023-04-25T05:44:40.224Z,1.57
2023-04-25T05:47:06.820Z,1.90
2023-04-25T05:49:33.466Z,2.08
2023-04-25T05:52:00.100Z,2.00
2023-04-25T05:54:26.833Z,2.05
2023-04-25T05:56:53.493Z,1.60
2023-04-25T05:59:20.128Z,2.00
2023-04-25T06:01:47.929Z,1.60
2023-04-25T06:04:14.731Z,1.77
2023-04-25T06:06:41.600Z,2.22
2023-04-25T06:09:08.321Z,2.20
2023-04-25T06:11:34.983Z,1.80
2023-04-25T06:14:01.821Z,1.90
2023-04-25T06:16:28.568Z,1.77
2023-04-25T06:18:55.308Z,2.50
2023-04-25T06:21:22.017Z,1.53
2023-04-25T06:23:48.984Z,1.92
2023-04-25T06:26:16.212Z,1.75
2023-04-25T06:28:42.902Z,1.85
2023-04-25T06:31:09.535Z,1.65
2023-04-25T06:33:36.251Z,1.77
2023-04-25T06:36:02.875Z,1.60
2023-04-25T06:38:29.429Z,1.70
2023-04-25T06:40:56.111Z,1.60
2023-04-25T06:43:22.697Z,1.77
2023-04-25T06:45:49.322Z,1.80
2023-04-25T06:48:16.483Z,1.92
2023-04-25T06:50:43.103Z,1.90
2023-04-25T06:53:09.844Z,1.77
2023-04-25T06:55:36.565Z,1.92
2023-04-25T06:58:04.231Z,1.73
2023-04-25T07:00:31.339Z,1.50
2023-04-25T07:02:58.442Z,1.67
2023-04-25T07:05:25.603Z,1.42
2023-04-25T07:07:52.191Z,1.90
2023-04-25T07:10:18.833Z,1.90
2023-04-25T07:12:45.442Z,1.75
2023-04-25T07:15:12.580Z,1.60
2023-04-25T07:17:39.418Z,1.38
2023-04-25T07:20:07.077Z,1.75
2023-04-25T07:22:34.062Z,1.63
2023-04-25T07:25:00.719Z,1.80
2023-04-25T07:27:27.396Z,2.00
2023-04-25T07:29:54.662Z,1.30
2023-04-25T07:32:21.429Z,1.70
2023-04-25T07:34:48.130Z,1.73
2023-04-25T07:37:15.345Z,1.67
2023-04-25T07:39:42.830Z,1.67
2023-04-25T07:42:09.592Z,1.88
2023-04-25T07:44:43.285Z,1.90
2023-04-25T07:47:10.759Z,1.53
2023-04-25T07:49:38.159Z,2.53
2023-04-25T07:52:07.007Z,1.58
2023-04-25T07:54:33.748Z,1.30
2023-04-25T07:57:00.687Z,2.00
2023-04-25T07:59:29.407Z,1.43
2023-04-25T08:01:58.305Z,1.30
2023-04-25T08:04:26.195Z,1.50
2023-04-25T08:06:54.569Z,1.60
2023-04-25T08:09:21.700Z,1.70
2023-04-25T08:11:48.373Z,1.90
2023-04-25T08:14:14.979Z,1.92
2023-04-25T08:16:41.865Z,2.25
2023-04-25T08:19:08.550Z,1.50
2023-04-25T08:21:35.185Z,1.50
2023-04-25T08:24:04.162Z,1.30
2023-04-25T08:26:31.065Z,1.15
2023-04-25T08:28:57.679Z,2.05
2023-04-25T08:31:24.292Z,1.30
2023-04-25T08:33:52.756Z,1.08
2023-04-25T08:36:31.474Z,1.27
2023-04-25T08:39:05.061Z,1.33
2023-04-25T08:41:31.998Z,1.10
2023-04-25T08:44:01.485Z,1.10
2023-04-25T08:46:28.791Z,1.52
2023-04-25T08:49:04.379Z,1.40
2023-04-25T08:51:33.764Z,1.25
2023-04-25T08:54:23.412Z,1.30
2023-04-25T08:56:58.960Z,1.40
2023-04-25T08:59:25.835Z,1.35
2023-04-25T09:01:52.817Z,1.17
2023-04-25T09:04:21.314Z,1.58
2023-04-25T09:06:49.206Z,1.75
2023-04-25T09:09:15.909Z,1.70
2023-04-25T09:11:42.640Z,1.25
2023-04-25T09:14:23.294Z,1.73
2023-04-25T09:17:00.592Z,1.70
2023-04-25T09:19:39.768Z,1.58
2023-04-25T09:22:08.913Z,1.10
2023-04-25T09:24:46.999Z,1.63
2023-04-25T09:27:19.842Z,1.67
2023-04-25T09:29:47.354Z,1.30
2023-04-25T09:32:20.144Z,1.65
2023-04-25T09:34:50.400Z,1.42
2023-04-25T09:37:27.813Z,1.35
2023-04-25T09:40:06.472Z,1.30
2023-04-25T09:42:35.500Z,1.60
2023-04-25T09:45:04.678Z,1.60
2023-04-25T09:47:31.892Z,1.50
2023-04-25T09:49:59.423Z,1.45
2023-04-25T09:52:26.404Z,1.30
2023-04-25T09:54:53.985Z,1.30
2023-04-25T09:57:25.494Z,1.70
2023-04-25T09:59:54.133Z,1.60
2023-04-25T10:02:26.213Z,1.55
2023-04-25T10:04:56.264Z,1.40
2023-04-25T10:07:29.806Z,1.20
2023-04-25T10:10:02.628Z,1.20
2023-04-25T10:12:29.581Z,1.30
2023-04-25T10:14:56.544Z,1.10
2023-04-25T10:17:24.241Z,1.20
2023-04-25T10:19:52.196Z,1.40
2023-04-25T10:22:27.076Z,1.75
2023-04-25T10:24:53.879Z,1.25
2023-04-25T10:27:20.886Z,1.42
2023-04-25T10:30:16.265Z,1.20
2023-04-25T10:32:43.918Z,1.35
2023-04-25T10:35:17.731Z,1.33
2023-04-25T10:38:14.477Z,1.27
2023-04-25T10:40:41.233Z,1.30
2023-04-25T10:43:32.963Z,1.80
2023-04-25T10:46:03.472Z,1.40
2023-04-25T10:48:31.426Z,1.50
2023-04-25T10:51:11.220Z,1.30
2023-04-25T10:53:38.109Z,1.38
2023-04-25T10:56:31.183Z,1.30
2023-04-25T10:59:08.043Z,1.50
2023-04-25T11:01:41.878Z,1.13
2023-04-25T11:04:22.385Z,1.30
2023-04-25T11:07:06.005Z,1.58
2023-04-25T11:09:35.214Z,1.20
2023-04-25T11:12:01.968Z,1.33
2023-04-25T11:14:28.668Z,2.33
2023-04-25T11:17:00.674Z,1.50
2023-04-25T11:19:29.877Z,1.33
2023-04-25T11:22:01.443Z,1.80
2023-04-25T11:24:39.997Z,1.30
2023-04-25T11:27:06.922Z,1.48
2023-04-25T11:29:35.060Z,2.20
2023-04-25T11:32:03.083Z,1.88
2023-04-25T11:34:31.769Z,1.60
2023-04-25T11:36:59.186Z,1.40
2023-04-25T11:39:27.355Z,1.73
2023-04-25T11:41:54.928Z,1.45
2023-04-25T11:44:22.328Z,1.33
2023-04-25T11:46:49.283Z,1.50
2023-04-25T11:49:16.638Z,1.50
2023-04-25T11:51:45.358Z,1.58
2023-04-25T11:54:13.332Z,1.65
2023-04-25T11:56:46.850Z,1.52
2023-04-25T11:59:14.287Z,0.93
2023-04-25T12:01:42.850Z,1.60
2023-04-25T12:04:24.094Z,1.70
2023-04-25T12:06:54.332Z,1.67
2023-04-25T12:09:28.142Z,1.83
2023-04-25T12:11:56.585Z,1.33
2023-04-25T12:14:25.014Z,1.50
2023-04-25T12:16:52.625Z,1.65
2023-04-25T12:19:20.910Z,1.50
2023-04-25T12:24:25.237Z,1.50
2023-04-25T12:27:05.428Z,1.30
2023-04-25T12:29:48.691Z,1.73
2023-04-25T12:32:17.808Z,1.55
2023-04-25T12:34:44.718Z,1.42
2023-04-25T12:37:11.600Z,1.40
2023-04-25T12:39:38.674Z,1.30
2023-04-25T12:42:07.581Z,1.45
2023-04-25T12:44:36.174Z,1.52
2023-04-25T12:47:03.969Z,1.33
2023-04-25T12:49:30.828Z,1.60
2023-04-25T12:51:57.458Z,1.20
2023-04-25T12:54:24.128Z,1.40
2023-04-25T12:56:51.562Z,1.42
2023-04-25T12:59:18.854Z,1.40
2023-04-25T13:01:46.429Z,1.23
2023-04-25T13:04:13.392Z,1.27
2023-04-25T13:06:40.436Z,1.83
2023-04-25T13:09:07.749Z,1.40
2023-04-25T13:11:34.412Z,1.65
2023-04-25T13:14:01.915Z,1.50
2023-04-25T13:16:28.556Z,1.60
2023-04-25T13:18:56.973Z,1.90
2023-04-25T13:21:23.583Z,1.33
2023-04-25T13:23:50.205Z,1.77
2023-04-25T13:26:17.454Z,1.50
2023-04-25T13:28:44.946Z,1.20
2023-04-25T13:31:11.918Z,1.33
2023-04-25T13:33:38.597Z,1.33
2023-04-25T13:36:05.331Z,1.30
2023-04-25T13:38:32.090Z,1.67
2023-04-25T13:40:58.713Z,1.58
2023-04-25T13:43:25.359Z,1.50
2023-04-25T13:45:52.593Z,1.67
2023-04-25T13:48:20.788Z,1.52
2023-04-25T13:50:47.524Z,1.90
2023-04-25T13:53:14.252Z,1.58
2023-04-25T13:55:41.157Z,1.67
2023-04-25T13:58:08.955Z,1.80
2023-04-25T14:00:40.362Z,1.70
2023-04-25T14:03:11.064Z,2.00
2023-04-25T14:05:41.026Z,1.48
2023-04-25T14:08:10.408Z,1.65
2023-04-25T14:10:37.808Z,1.40
2023-04-25T14:13:05.464Z,1.17
2023-04-25T14:15:35.661Z,1.20
2023-04-25T14:18:02.656Z,1.13
2023-04-25T14:20:29.730Z,1.40
2023-04-25T14:22:58.056Z,1.58
2023-04-25T14:25:25.396Z,1.63
2023-04-25T14:27:52.173Z,1.73
2023-04-25T14:30:20.224Z,1.60
2023-04-25T14:32:47.191Z,1.50
2023-04-25T14:35:14.128Z,1.88
2023-04-25T14:37:41.123Z,1.40
2023-04-25T14:40:13.931Z,1.70
2023-04-25T14:42:41.181Z,1.42
2023-04-25T14:45:09.443Z,1.58
2023-04-25T14:47:37.672Z,1.25
2023-04-25T14:50:05.535Z,1.30
2023-04-25T14:52:32.220Z,1.57
2023-04-25T14:55:01.357Z,1.90
2023-04-25T14:57:28.053Z,1.30
2023-04-25T14:59:54.648Z,1.30
2023-04-25T15:02:21.435Z,1.10
2023-04-25T15:04:48.238Z,1.13
2023-04-25T15:07:16.430Z,1.23
2023-04-25T15:09:44.962Z,1.33
2023-04-25T15:12:12.112Z,1.40
2023-04-25T15:14:38.673Z,1.30
2023-04-25T15:17:05.384Z,1.30
2023-04-25T15:19:32.146Z,1.58
2023-04-25T15:22:02.219Z,1.60
2023-04-25T15:24:29.945Z,1.80
2023-04-25T15:26:57.440Z,1.70
2023-04-25T15:29:24.008Z,1.67
2023-04-25T15:31:50.862Z,1.50
2023-04-25T15:34:17.470Z,1.83
2023-04-25T15:36:44.180Z,1.17
2023-04-25T15:39:10.905Z,1.58
2023-04-25T15:41:37.975Z,1.53
2023-04-25T15:44:05.210Z,1.63
2023-04-25T15:46:32.021Z,1.52
2023-04-25T15:48:58.721Z,1.73
2023-04-25T15:51:25.540Z,1.45
2023-04-25T15:53:52.261Z,1.40
2023-04-25T15:56:19.044Z,1.50
2023-04-25T15:58:45.691Z,1.42
2023-04-25T16:01:12.421Z,1.10
2023-04-25T16:03:39.415Z,1.00
2023-04-25T16:06:06.305Z,0.90
2023-04-25T16:08:35.754Z,1.50
2023-04-25T16:11:03.333Z,1.40
2023-04-25T16:13:30.177Z,1.30
2023-04-25T16:15:57.603Z,1.63
2023-04-25T16:18:24.324Z,1.27
2023-04-25T16:20:57.438Z,1.60
2023-04-25T16:23:24.121Z,1.40
2023-04-25T16:25:50.774Z,1.60
2023-04-25T16:28:17.630Z,1.73
2023-04-25T16:30:44.329Z,1.30
2023-04-25T16:33:10.978Z,1.60
2023-04-25T16:35:37.824Z,1.60
2023-04-25T16:38:05.316Z,1.30
2023-04-25T16:40:31.977Z,1.50
2023-04-25T16:42:58.686Z,1.53
2023-04-25T16:45:26.192Z,1.45
2023-04-25T16:47:52.863Z,1.60
2023-04-25T16:50:20.699Z,1.48
2023-04-25T16:52:47.463Z,1.60
2023-04-25T16:55:14.142Z,1.23
2023-04-25T16:57:41.248Z,1.38
2023-04-25T17:00:13.458Z,1.40
2023-04-25T17:02:40.256Z,1.73
2023-04-25T17:05:07.397Z,1.70
2023-04-25T17:07:34.164Z,1.43
2023-04-25T17:10:01.120Z,1.55
2023-04-25T17:12:27.822Z,1.45
2023-04-25T17:14:54.676Z,1.60
2023-04-25T17:17:21.352Z,1.50
2023-04-25T17:19:48.119Z,1.90
2023-04-25T17:22:14.812Z,1.80
2023-04-25T17:24:41.641Z,2.17
2023-04-25T17:27:08.356Z,1.90
2023-04-25T17:29:35.172Z,1.50
2023-04-25T17:32:01.969Z,1.60
2023-04-25T17:34:29.008Z,2.00
2023-04-25T17:36:55.703Z,1.50
2023-04-25T17:39:22.293Z,2.10
2023-04-25T17:41:49.050Z,1.65
2023-04-25T17:44:15.681Z,1.87
2023-04-25T17:46:42.417Z,1.75
2023-04-25T17:49:09.098Z,1.67
2023-04-25T17:51:35.770Z,2.08
2023-04-25T17:54:02.392Z,1.80
2023-04-25T17:56:29.149Z,1.70
2023-04-25T17:58:56.002Z,1.75
2023-04-25T18:01:23.030Z,1.67
2023-04-25T18:03:50.603Z,1.70
2023-04-25T18:06:18.365Z,1.60
2023-04-25T18:08:45.228Z,2.00
2023-04-25T18:11:12.234Z,1.95
2023-04-25T18:13:41.576Z,1.85
2023-04-25T18:16:08.953Z,2.15
2023-04-25T18:18:45.869Z,1.65
2023-04-25T18:21:12.622Z,2.50
2023-04-25T18:23:39.532Z,2.05
2023-04-25T18:26:11.211Z,2.30
2023-04-25T18:28:38.003Z,2.00
2023-04-25T18:31:04.779Z,2.28
2023-04-25T18:33:31.864Z,2.40
2023-04-25T18:35:59.849Z,2.55
2023-04-25T18:41:08.268Z,1.90
2023-04-25T18:43:43.441Z,1.77
2023-04-25T18:46:10.340Z,1.90
2023-04-25T18:48:37.387Z,1.90
2023-04-25T18:51:05.350Z,2.15
2023-04-25T18:53:32.204Z,1.95
2023-04-25T18:55:58.857Z,1.85
2023-04-25T18:58:26.328Z,1.73
2023-04-25T19:00:53.484Z,2.03
2023-04-25T19:03:21.093Z,1.90
2023-04-25T19:05:48.025Z,2.00
2023-04-25T19:08:14.653Z,2.28
2023-04-25T19:10:41.303Z,2.30
2023-04-25T19:13:08.457Z,2.17
2023-04-25T19:15:35.173Z,2.38
2023-04-25T19:18:02.659Z,2.60
2023-04-25T19:20:29.318Z,2.10
2023-04-25T19:22:55.928Z,2.70
2023-04-25T19:25:24.624Z,2.15
2023-04-25T19:27:51.398Z,2.22
2023-04-25T19:30:18.065Z,2.58
2023-04-25T19:32:45.414Z,2.95
2023-04-25T19:35:12.401Z,2.30
2023-04-25T19:37:41.071Z,2.47
2023-04-25T19:40:08.481Z,3.20
2023-04-25T19:42:35.581Z,2.50
2023-04-25T19:45:02.209Z,2.63
2023-04-25T19:47:28.971Z,2.33
2023-04-25T19:49:55.634Z,2.20
2023-04-25T19:52:22.373Z,2.50
2023-04-25T19:54:48.944Z,2.22
2023-04-25T19:57:15.602Z,2.50
2023-04-25T19:59:45.620Z,3.10
2023-04-25T20:02:12.260Z,2.53
2023-04-25T20:04:38.961Z,2.47
2023-04-25T20:07:05.658Z,2.40
2023-04-25T20:09:32.312Z,2.47
2023-04-25T20:11:58.975Z,2.30
2023-04-25T20:14:26.060Z,2.72
2023-04-25T20:16:53.614Z,3.28
2023-04-25T20:19:20.240Z,2.67
2023-04-25T20:21:47.158Z,3.08
2023-04-25T20:24:13.765Z,2.70
2023-04-25T20:26:40.510Z,2.40
2023-04-25T20:29:09.713Z,2.72
2023-04-25T20:31:37.033Z,2.80
2023-04-25T20:34:04.257Z,2.50
2023-04-25T20:36:32.060Z,3.20
2023-04-25T20:38:58.801Z,2.63
2023-04-25T20:41:25.550Z,2.60
2023-04-25T20:43:53.289Z,2.30
2023-04-25T20:46:20.518Z,3.20
2023-04-25T20:48:47.277Z,2.97
2023-04-25T20:51:14.309Z,2.72
2023-04-25T20:53:40.925Z,2.88
2023-04-25T20:56:07.586Z,2.30
2023-04-25T20:58:34.230Z,3.22
2023-04-25T21:01:01.337Z,2.30
2023-04-25T21:03:28.594Z,2.53
2023-04-25T21:05:55.419Z,2.70
2023-04-25T21:08:22.176Z,2.85
2023-04-25T21:10:48.796Z,2.83
2023-04-25T21:13:15.564Z,2.83
2023-04-25T21:15:42.243Z,2.45
2023-04-25T21:18:09.035Z,3.22
2023-04-25T21:20:36.074Z,2.70
2023-04-25T21:23:03.273Z,2.55
2023-04-25T21:25:33.737Z,2.57
2023-04-25T21:28:02.173Z,2.70
2023-04-25T21:30:29.017Z,2.30
2023-04-25T21:32:56.484Z,2.58
2023-04-25T21:35:23.285Z,2.92
2023-04-25T21:37:50.703Z,2.77
2023-04-25T21:40:17.599Z,2.85
2023-04-25T21:42:46.299Z,2.70
2023-04-25T21:45:13.214Z,2.75
2023-04-25T21:47:39.888Z,2.60
2023-04-25T21:50:07.718Z,2.43
2023-04-25T21:52:36.106Z,2.50
2023-04-25T21:55:02.853Z,2.95
2023-04-25T21:57:29.461Z,3.03
2023-04-25T21:59:56.744Z,2.83
2023-04-25T22:02:23.882Z,2.93
2023-04-25T22:04:51.390Z,3.40
2023-04-25T22:07:18.210Z,2.95
2023-04-25T22:09:54.490Z,2.55
2023-04-25T22:12:23.047Z,2.90
2023-04-25T22:14:50.203Z,2.60
2023-04-25T22:17:17.647Z,2.95
2023-04-25T22:19:44.726Z,2.83
2023-04-25T22:22:11.698Z,2.72
2023-04-25T22:24:38.744Z,2.58
2023-04-25T22:27:05.660Z,3.00
2023-04-25T22:29:32.831Z,2.65
2023-04-25T22:31:59.764Z,3.00
2023-04-25T22:34:26.548Z,2.80
2023-04-25T22:36:54.799Z,2.83
2023-04-25T22:39:21.434Z,2.60
2023-04-25T22:41:48.861Z,2.92
2023-04-25T22:44:15.635Z,2.53
2023-04-25T22:46:43.243Z,2.90
2023-04-25T22:49:09.984Z,3.40
2023-04-25T22:51:37.225Z,2.40
2023-04-25T22:54:05.414Z,2.90
2023-04-25T22:56:32.697Z,2.17
2023-04-25T22:58:59.381Z,2.58
2023-04-25T23:01:27.743Z,2.80
2023-04-25T23:03:54.942Z,2.60
2023-04-25T23:06:21.766Z,2.58
2023-04-25T23:08:48.469Z,3.17
2023-04-25T23:11:15.470Z,3.40
2023-04-25T23:13:42.178Z,3.33
2023-04-25T23:16:10.689Z,2.93
2023-04-25T23:18:38.112Z,3.20
2023-04-25T23:21:08.797Z,2.50
2023-04-25T23:23:36.485Z,2.92
2023-04-25T23:26:12.838Z,2.75
2023-04-25T23:28:41.587Z,3.27
2023-04-25T23:31:10.242Z,2.97
2023-04-25T23:33:37.311Z,2.97
2023-04-25T23:36:04.251Z,3.03
2023-04-25T23:38:31.772Z,3.30
2023-04-25T23:40:58.436Z,3.10
2023-04-25T23:43:25.068Z,3.85
2023-04-25T23:45:51.794Z,3.70
2023-04-25T23:48:18.579Z,3.25
2023-04-25T23:50:45.206Z,3.28
2023-04-25T23:53:11.908Z,3.10
2023-04-25T23:55:38.766Z,3.15
2023-04-25T23:58:05.412Z,3.30
